Archival Weather

Snohomish County (Paine Fld)

Everett, Washington (KPAE)

Report from: Monday, November 20, 2023 7:53 AM PST
Current time: Sunday, February 25, 2024 1:49 PM PST

Current weather – Weather history – Daily summaries
Weather forecast

Temperature3.3°C (37.9°F)
Wind chill0.8°C (33.5°F)
Dew point0.6°C (33.1°F)
Winds 5 kts (2.6 m/s, 5.8 mph) East (100°)
Visibility10 mi. (16.1 km)
Clouds Sky clear
Altimeter30.50 in.Hg (1033 mB)
Relative humidity82 %
Density altitude-2,002 ft. (-610 m)
Sea-level pressure103.3 kPa (1033 mB, 30.51 in.Hg)
Remarks Automated weather observing station with precipitation discriminator
Flight conditions Visual Meteorological Conditions
Raw dataKPAE 201553Z 10005KT 10SM CLR 03/01 A3050 RMK AO2 SLP333 T00330006
An error has occurred. This application may no longer respond until reloaded. Reload 🗙